Time;durP1;ratioP1;P1;durP2;ratioP2;P2;SDS_P1;SDS_P2;PMS_P1;PMS_P2;Temp;Humidity;BMP_temperature;BMP_pressure;BME280_temperature;BME280_humidity;BME280_pressure;Samples;Min_cycle;Max_cycle;Signal;HPM_P1;HPM_P2
2021/08/14 00:00:10;;;;;;;19.58;14.65;;;16.70;99.90;;;;;;4971262;28;20030;-78
2021/08/14 00:02:36;;;;;;;20.02;14.13;;;16.80;99.90;;;;;;4971174;28;20046;-78
2021/08/14 00:05:03;;;;;;;18.20;12.27;;;16.70;99.90;;;;;;4966655;28;20470;-78
2021/08/14 00:07:28;;;;;;;20.80;14.15;;;16.70;99.90;;;;;;4963170;28;20458;-78
2021/08/14 00:09:54;;;;;;;19.13;14.25;;;16.60;99.90;;;;;;4951900;28;20111;-78
2021/08/14 00:12:20;;;;;;;19.85;13.70;;;16.60;99.90;;;;;;4968290;28;20035;-78
2021/08/14 00:14:45;;;;;;;19.40;13.18;;;16.60;99.90;;;;;;4972356;28;20041;-78
2021/08/14 00:17:11;;;;;;;21.35;14.23;;;16.60;99.90;;;;;;4972207;28;20389;-78
2021/08/14 00:19:37;;;;;;;25.73;15.95;;;16.50;99.90;;;;;;4987091;28;20015;-78
2021/08/14 00:22:02;;;;;;;27.02;16.80;;;16.60;99.90;;;;;;4971802;28;20027;-77
2021/08/14 00:24:28;;;;;;;17.38;14.15;;;16.50;99.90;;;;;;4955641;28;20030;-78
2021/08/14 00:26:54;;;;;;;25.80;16.23;;;16.60;99.90;;;;;;4952852;28;20371;-78
2021/08/14 00:29:19;;;;;;;24.42;14.80;;;16.60;99.90;;;;;;4952767;28;20081;-78
2021/08/14 00:31:45;;;;;;;21.10;15.32;;;16.60;99.90;;;;;;4952770;28;20035;-78
2021/08/14 00:34:11;;;;;;;24.00;16.08;;;16.60;99.90;;;;;;4951490;28;20054;-77
2021/08/14 00:36:36;;;;;;;23.23;14.93;;;16.60;99.90;;;;;;4950518;28;20029;-77
2021/08/14 00:39:03;;;;;;;23.10;15.77;;;16.60;99.90;;;;;;4951284;28;20031;-78
2021/08/14 00:41:32;;;;;;;31.33;17.63;;;16.60;99.90;;;;;;4952417;28;20023;-78
2021/08/14 00:44:01;;;;;;;24.27;14.38;;;16.60;99.90;;;;;;4951345;29;20556;-78
2021/08/14 00:46:32;;;;;;;22.38;14.55;;;16.60;99.90;;;;;;4951232;29;20027;-78
2021/08/14 00:48:59;;;;;;;23.20;15.02;;;16.60;99.90;;;;;;4967367;28;20027;-78
2021/08/14 00:51:24;;;;;;;25.77;14.73;;;16.60;99.90;;;;;;4950919;29;20598;-78
2021/08/14 00:53:51;;;;;;;21.70;13.98;;;16.60;99.90;;;;;;4952480;28;20509;-78
2021/08/14 00:56:24;;;;;;;18.30;13.68;;;16.60;99.90;;;;;;4967264;28;20057;-78
2021/08/14 00:58:54;;;;;;;18.13;12.55;;;16.60;99.90;;;;;;4951598;28;20027;-78
2021/08/14 01:01:26;;;;;;;13.15;10.88;;;16.60;99.90;;;;;;4969909;28;20105;-78
2021/08/14 01:03:54;;;;;;;12.05;9.90;;;16.50;99.90;;;;;;4971598;28;20042;-78
2021/08/14 01:06:20;;;;;;;19.88;14.38;;;16.50;99.90;;;;;;4970258;28;20023;-77
2021/08/14 01:08:53;;;;;;;24.08;14.38;;;16.50;99.90;;;;;;4971541;28;20031;-78
2021/08/14 01:11:19;;;;;;;20.98;13.25;;;16.50;99.90;;;;;;4986351;28;20030;-77
2021/08/14 01:13:45;;;;;;;24.60;15.40;;;16.50;99.90;;;;;;4971443;28;20385;-78
2021/08/14 01:16:11;;;;;;;19.02;12.88;;;16.60;99.90;;;;;;4971440;28;20369;-78
2021/08/14 01:18:45;;;;;;;22.77;15.82;;;16.60;99.90;;;;;;4970100;28;20049;-78
2021/08/14 01:21:37;;;;;;;26.20;16.17;;;16.70;99.90;;;;;;4971492;28;20027;-78
2021/08/14 01:24:04;;;;;;;16.43;13.00;;;16.70;99.90;;;;;;4987842;28;20061;-78
2021/08/14 01:26:31;;;;;;;16.63;12.70;;;16.70;99.90;;;;;;4970085;28;20290;-78
2021/08/14 01:28:56;;;;;;;14.15;12.48;;;16.70;99.90;;;;;;4970017;28;20023;-78
2021/08/14 01:31:22;;;;;;;14.20;11.43;;;16.70;99.90;;;;;;4971024;28;20072;-78
2021/08/14 01:33:48;;;;;;;16.65;12.13;;;16.70;99.90;;;;;;4969632;28;20109;-78
2021/08/14 01:36:16;;;;;;;12.95;10.55;;;16.70;99.90;;;;;;4973000;28;20035;-78
2021/08/14 01:38:50;;;;;;;13.95;10.13;;;16.70;99.90;;;;;;4974494;28;20035;-78
2021/08/14 01:41:16;;;;;;;12.02;10.23;;;16.70;99.90;;;;;;4974468;28;20014;-78
2021/08/14 01:44:09;;;;;;;12.40;10.65;;;16.70;99.90;;;;;;4973296;28;20427;-78
2021/08/14 01:46:37;;;;;;;13.48;9.82;;;16.70;99.90;;;;;;4973282;28;20027;-78
2021/08/14 01:49:03;;;;;;;10.48;9.38;;;16.60;99.90;;;;;;4973277;28;20035;-78
2021/08/14 01:51:31;;;;;;;13.40;10.07;;;16.60;99.90;;;;;;4973049;28;20496;-78
2021/08/14 01:53:59;;;;;;;11.18;10.00;;;16.60;99.90;;;;;;4973144;28;20026;-78
2021/08/14 01:56:26;;;;;;;11.88;10.50;;;16.60;99.90;;;;;;4973927;28;20031;-77
2021/08/14 01:58:52;;;;;;;12.73;10.02;;;16.70;99.90;;;;;;4972618;28;20037;-77
2021/08/14 02:01:18;;;;;;;17.00;11.88;;;16.70;99.90;;;;;;4974215;28;20129;-78
2021/08/14 02:03:46;;;;;;;20.17;12.70;;;16.70;99.90;;;;;;4972997;28;20511;-78
2021/08/14 02:06:12;;;;;;;21.25;14.35;;;16.80;99.90;;;;;;5057888;28;20016;-78
2021/08/14 02:08:38;;;;;;;20.42;15.05;;;16.80;99.90;;;;;;4972937;28;20027;-78
2021/08/14 02:11:11;;;;;;;23.52;14.15;;;16.80;99.90;;;;;;4974167;28;20494;-78
2021/08/14 02:13:38;;;;;;;16.90;12.60;;;16.80;99.90;;;;;;4972874;28;20709;-78
2021/08/14 02:16:04;;;;;;;19.10;13.07;;;16.90;99.90;;;;;;4974214;28;20026;-78
2021/08/14 02:18:29;;;;;;;23.42;14.40;;;17.00;99.90;;;;;;4973984;28;20027;-78
2021/08/14 02:20:55;;;;;;;24.38;15.73;;;17.00;99.90;;;;;;4972824;28;20026;-78
2021/08/14 02:23:20;;;;;;;16.08;12.40;;;16.90;99.90;;;;;;4958239;28;20039;-78
2021/08/14 02:25:46;;;;;;;15.85;13.40;;;16.90;99.90;;;;;;4954612;28;20137;-78
2021/08/14 02:28:12;;;;;;;19.73;14.05;;;16.80;99.90;;;;;;4954562;28;20054;-78
2021/08/14 02:30:37;;;;;;;18.38;14.98;;;16.70;99.90;;;;;;4969348;28;20035;-79
2021/08/14 02:33:03;;;;;;;20.38;14.27;;;16.70;99.90;;;;;;4954533;28;20035;-78
2021/08/14 02:35:29;;;;;;;17.08;14.23;;;16.70;99.90;;;;;;4969637;28;20019;-78
2021/08/14 02:37:54;;;;;;;18.98;13.95;;;16.70;99.90;;;;;;4969326;28;20551;-78
2021/08/14 02:40:20;;;;;;;15.15;12.80;;;16.80;99.90;;;;;;4973411;28;20038;-78
2021/08/14 02:42:46;;;;;;;18.35;14.15;;;16.80;99.90;;;;;;4988629;28;20473;-78
2021/08/14 02:45:12;;;;;;;18.20;14.38;;;16.90;99.90;;;;;;4988225;28;20416;-78
2021/08/14 02:47:39;;;;;;;19.90;13.50;;;17.00;99.90;;;;;;4973593;28;20031;-78
2021/08/14 02:50:05;;;;;;;17.38;14.57;;;17.00;99.90;;;;;;4988483;28;20034;-78
2021/08/14 02:52:31;;;;;;;18.48;13.95;;;17.00;99.90;;;;;;4971288;28;20052;-78
2021/08/14 02:54:57;;;;;;;19.60;14.52;;;17.10;99.90;;;;;;4972169;28;20548;-78
2021/08/14 02:57:22;;;;;;;16.85;13.90;;;17.10;99.90;;;;;;4972068;28;20385;-78
2021/08/14 02:59:48;;;;;;;18.88;13.98;;;17.10;99.90;;;;;;4973443;28;20477;-78
2021/08/14 03:02:14;;;;;;;16.88;14.82;;;17.10;99.90;;;;;;4970845;28;20469;-78
2021/08/14 03:04:39;;;;;;;18.55;15.13;;;17.10;99.90;;;;;;4972335;28;20492;-79
2021/08/14 03:07:05;;;;;;;22.80;15.07;;;17.20;99.90;;;;;;4973113;28;20041;-78
2021/08/14 03:09:30;;;;;;;23.00;15.23;;;17.20;99.90;;;;;;4973303;28;20092;-78
2021/08/14 03:11:56;;;;;;;19.70;14.50;;;17.20;99.90;;;;;;4970661;28;20122;-78
2021/08/14 03:14:22;;;;;;;22.50;15.32;;;17.30;99.90;;;;;;4968750;28;20033;-78
2021/08/14 03:16:48;;;;;;;20.80;14.50;;;17.30;99.90;;;;;;4952710;28;20065;-78
2021/08/14 03:19:14;;;;;;;19.00;13.90;;;17.30;99.90;;;;;;4953859;28;20015;-78
2021/08/14 03:21:39;;;;;;;16.13;13.32;;;17.30;99.90;;;;;;4953815;28;20037;-79
2021/08/14 03:24:05;;;;;;;15.02;12.82;;;17.40;99.90;;;;;;4953685;28;20089;-78
2021/08/14 03:26:31;;;;;;;15.48;13.88;;;17.30;99.90;;;;;;4953731;28;20398;-78
2021/08/14 03:28:56;;;;;;;14.50;12.95;;;17.30;99.90;;;;;;4953636;28;20028;-78
2021/08/14 03:31:22;;;;;;;17.88;13.52;;;17.30;99.90;;;;;;4968423;28;20130;-79
2021/08/14 03:33:48;;;;;;;17.17;13.95;;;17.20;99.90;;;;;;4952383;28;20041;-78
2021/08/14 03:36:14;;;;;;;18.60;13.25;;;17.30;99.90;;;;;;4963444;28;20019;-78
2021/08/14 03:38:40;;;;;;;16.55;13.88;;;17.20;99.90;;;;;;4971925;28;20027;-78
2021/08/14 03:41:08;;;;;;;17.10;14.38;;;17.20;99.90;;;;;;4987398;28;20396;-78
2021/08/14 03:43:34;;;;;;;18.33;15.30;;;17.20;99.90;;;;;;4971471;28;20023;-78
2021/08/14 03:46:00;;;;;;;17.08;15.13;;;17.20;99.90;;;;;;4972859;28;20018;-78
2021/08/14 03:48:27;;;;;;;18.70;14.52;;;17.20;99.90;;;;;;4971308;28;20092;-78
2021/08/14 03:50:52;;;;;;;20.25;14.15;;;17.20;99.90;;;;;;4972934;28;20071;-78
2021/08/14 03:53:18;;;;;;;20.13;14.68;;;17.30;99.90;;;;;;4970635;28;20507;-78
2021/08/14 03:55:44;;;;;;;23.52;15.88;;;17.40;99.90;;;;;;4971397;28;20031;-79
2021/08/14 03:58:10;;;;;;;20.30;15.40;;;17.40;99.90;;;;;;4970431;28;20019;-78
2021/08/14 04:00:35;;;;;;;19.27;14.75;;;17.40;99.90;;;;;;4969263;28;20438;-78
2021/08/14 04:03:01;;;;;;;18.33;14.65;;;17.40;99.90;;;;;;4971778;28;20034;-78
2021/08/14 04:05:27;;;;;;;17.98;14.63;;;17.40;99.90;;;;;;4967630;28;20385;-78
2021/08/14 04:07:53;;;;;;;19.77;15.05;;;17.40;99.90;;;;;;4994740;28;20034;-78
2021/08/14 04:10:19;;;;;;;17.25;14.10;;;17.50;99.90;;;;;;4967005;28;20027;-78
2021/08/14 04:12:45;;;;;;;19.88;15.50;;;17.50;99.90;;;;;;4971252;28;20034;-78
2021/08/14 04:15:11;;;;;;;19.67;15.88;;;17.50;99.90;;;;;;4971100;28;20035;-78
2021/08/14 04:17:38;;;;;;;24.58;16.08;;;17.40;99.90;;;;;;4972162;28;20074;-78
2021/08/14 04:20:05;;;;;;;20.92;15.20;;;17.40;99.90;;;;;;4987212;28;20432;-79
2021/08/14 04:22:30;;;;;;;18.40;15.93;;;17.50;99.90;;;;;;4972126;28;20062;-78
2021/08/14 04:24:56;;;;;;;18.90;15.07;;;17.50;99.90;;;;;;4972224;28;20054;-79
2021/08/14 04:27:22;;;;;;;18.33;15.77;;;17.60;99.90;;;;;;4968364;28;20464;-78
2021/08/14 04:29:48;;;;;;;18.08;14.30;;;17.70;99.90;;;;;;4952865;28;20106;-78
2021/08/14 04:32:13;;;;;;;21.45;15.57;;;17.70;99.90;;;;;;4967424;28;20031;-78
2021/08/14 04:34:39;;;;;;;23.25;15.60;;;17.70;99.90;;;;;;4959819;28;20022;-79
2021/08/14 04:37:04;;;;;;;18.27;16.38;;;17.80;99.90;;;;;;4966990;28;20027;-78
2021/08/14 04:39:30;;;;;;;17.90;15.05;;;17.80;99.90;;;;;;4952961;28;20114;-78
2021/08/14 04:41:56;;;;;;;18.60;14.80;;;17.90;99.90;;;;;;4982445;28;20389;-78
2021/08/14 04:44:22;;;;;;;20.40;15.55;;;18.10;99.90;;;;;;4970687;28;20106;-79
2021/08/14 04:46:47;;;;;;;21.85;14.15;;;18.10;99.90;;;;;;4971849;28;20114;-78
2021/08/14 04:49:14;;;;;;;16.88;14.55;;;18.20;99.90;;;;;;4986541;28;20030;-78
2021/08/14 04:51:39;;;;;;;15.45;13.95;;;18.30;99.90;;;;;;4971607;28;20070;-78
2021/08/14 04:54:05;;;;;;;16.38;14.43;;;18.40;99.90;;;;;;4971673;28;20027;-78
2021/08/14 04:56:31;;;;;;;17.67;13.63;;;18.40;99.90;;;;;;4970469;28;20062;-78
2021/08/14 04:58:56;;;;;;;17.42;13.93;;;18.50;99.90;;;;;;4970434;28;20136;-78
2021/08/14 05:01:22;;;;;;;17.05;15.18;;;18.50;99.90;;;;;;4969887;28;20022;-78
2021/08/14 05:03:47;;;;;;;18.08;14.25;;;18.60;99.90;;;;;;4971670;28;20034;-78
2021/08/14 05:06:13;;;;;;;17.38;14.23;;;18.70;99.90;;;;;;4970332;28;20106;-78
2021/08/14 05:08:39;;;;;;;17.25;14.23;;;18.80;99.90;;;;;;4969290;28;20480;-78
2021/08/14 05:11:05;;;;;;;16.95;13.65;;;18.90;99.90;;;;;;4962192;28;20456;-78
2021/08/14 05:13:30;;;;;;;15.38;13.70;;;19.10;99.90;;;;;;4952084;28;20024;-78
2021/08/14 05:15:56;;;;;;;20.95;13.63;;;19.20;99.90;;;;;;4952235;28;20098;-78
2021/08/14 05:18:22;;;;;;;13.80;12.20;;;19.30;99.90;;;;;;4952047;28;20469;-78
2021/08/14 05:20:47;;;;;;;14.52;12.82;;;19.50;99.90;;;;;;4965775;28;20031;-78
2021/08/14 05:23:13;;;;;;;14.98;12.23;;;19.50;99.90;;;;;;4970084;28;20023;-78
2021/08/14 05:25:39;;;;;;;14.27;12.77;;;19.60;99.90;;;;;;4984500;28;20480;-79
2021/08/14 05:28:05;;;;;;;14.43;12.73;;;19.70;99.90;;;;;;4986205;28;20498;-78
2021/08/14 05:30:31;;;;;;;13.70;11.77;;;19.80;99.90;;;;;;4969906;28;20503;-78
2021/08/14 05:32:56;;;;;;;15.45;13.10;;;19.80;99.90;;;;;;4986211;28;20023;-78
2021/08/14 05:35:22;;;;;;;14.25;12.13;;;19.90;99.90;;;;;;4970867;28;20117;-78
2021/08/14 05:37:48;;;;;;;15.52;12.30;;;20.00;99.90;;;;;;4960380;28;20031;-79
2021/08/14 05:40:14;;;;;;;18.13;12.68;;;20.00;99.90;;;;;;4967838;28;20404;-78
2021/08/14 05:42:39;;;;;;;14.90;12.13;;;20.10;99.90;;;;;;4970760;28;20140;-78
2021/08/14 05:45:06;;;;;;;15.00;13.40;;;20.10;99.90;;;;;;4971118;28;20102;-78
2021/08/14 05:47:32;;;;;;;15.73;12.48;;;20.10;99.90;;;;;;4970961;28;20058;-78
2021/08/14 05:49:57;;;;;;;14.38;12.90;;;20.10;99.90;;;;;;4969577;28;20500;-78
2021/08/14 05:52:23;;;;;;;14.18;12.30;;;20.10;99.90;;;;;;4970803;28;20066;-78
2021/08/14 05:54:50;;;;;;;18.85;13.82;;;20.20;99.90;;;;;;4971057;28;20058;-78
2021/08/14 05:57:15;;;;;;;17.92;12.80;;;20.30;99.90;;;;;;4969603;28;20134;-78
2021/08/14 05:59:41;;;;;;;14.75;11.23;;;20.40;99.90;;;;;;5053985;28;20498;-78
2021/08/14 06:02:07;;;;;;;13.95;12.50;;;20.60;99.90;;;;;;4952535;28;20027;-79
2021/08/14 06:04:33;;;;;;;25.23;14.40;;;20.70;99.90;;;;;;4950253;28;20027;-78
2021/08/14 06:06:59;;;;;;;19.20;12.70;;;20.70;99.90;;;;;;4971869;28;20124;-78
2021/08/14 06:09:25;;;;;;;15.68;11.20;;;20.80;99.90;;;;;;4970731;28;20532;-79
2021/08/14 06:11:51;;;;;;;12.50;11.25;;;20.80;99.90;;;;;;4969151;28;20386;-78
2021/08/14 06:14:17;;;;;;;14.40;11.27;;;20.80;99.90;;;;;;4985680;28;20034;-78
2021/08/14 06:16:42;;;;;;;15.40;10.82;;;20.80;99.90;;;;;;4970740;28;20027;-79
2021/08/14 06:19:08;;;;;;;12.52;10.85;;;21.00;99.90;;;;;;4967998;28;20029;-79
2021/08/14 06:21:34;;;;;;;14.05;10.10;;;21.30;99.90;;;;;;4970626;28;20539;-78
2021/08/14 06:23:59;;;;;;;12.07;10.82;;;21.50;99.90;;;;;;4969390;28;20444;-78
2021/08/14 06:26:25;;;;;;;15.00;11.10;;;21.70;99.90;;;;;;4954580;28;20397;-78
2021/08/14 06:28:51;;;;;;;11.30;10.18;;;22.00;99.90;;;;;;4953397;28;20027;-78
2021/08/14 06:31:16;;;;;;;10.13;9.07;;;22.10;99.90;;;;;;4969360;28;20126;-78
2021/08/14 06:33:45;;;;;;;12.68;10.15;;;22.30;99.90;;;;;;4954633;28;20031;-78
2021/08/14 06:36:12;;;;;;;12.75;10.27;;;22.30;99.90;;;;;;4954449;28;20032;-79
2021/08/14 06:38:38;;;;;;;11.50;9.93;;;22.50;99.90;;;;;;4971778;28;20070;-78
2021/08/14 06:41:04;;;;;;;14.15;10.88;;;22.70;99.90;;;;;;4966922;28;20028;-78
2021/08/14 06:43:30;;;;;;;12.38;10.90;;;22.80;99.90;;;;;;4954347;28;20031;-78
2021/08/14 06:45:56;;;;;;;13.57;12.00;;;22.80;99.90;;;;;;4954481;28;20019;-78
2021/08/14 06:48:22;;;;;;;14.88;10.98;;;23.00;99.90;;;;;;4954057;28;20062;-78
2021/08/14 06:50:47;;;;;;;13.15;11.20;;;23.20;99.90;;;;;;4954294;28;20057;-79
2021/08/14 06:53:13;;;;;;;13.35;11.02;;;23.30;99.90;;;;;;4954221;28;20031;-78
2021/08/14 06:55:39;;;;;;;12.25;10.52;;;23.50;99.90;;;;;;4954222;28;20032;-78
2021/08/14 06:58:04;;;;;;;11.45;10.02;;;23.80;99.90;;;;;;4969052;28;20065;-79
2021/08/14 07:00:30;;;;;;;12.65;11.15;;;24.00;99.90;;;;;;4969996;28;20485;-78
2021/08/14 07:02:56;;;;;;;13.25;11.15;;;24.30;99.90;;;;;;4954150;28;20035;-79
2021/08/14 07:05:21;;;;;;;13.35;11.13;;;24.30;99.90;;;;;;4954090;28;20484;-79
2021/08/14 07:07:47;;;;;;;13.70;10.63;;;24.30;99.90;;;;;;4964379;28;20035;-79
2021/08/14 07:10:13;;;;;;;13.73;10.98;;;23.90;99.90;;;;;;4971975;28;20018;-79
2021/08/14 07:12:39;;;;;;;12.43;11.07;;;23.80;99.90;;;;;;4960068;28;20121;-78
2021/08/14 07:15:06;;;;;;;13.63;10.88;;;23.90;99.90;;;;;;4953933;28;20074;-79
2021/08/14 07:17:32;;;;;;;13.65;10.48;;;24.00;99.90;;;;;;4952584;28;20023;-79
2021/08/14 07:19:58;;;;;;;12.45;10.63;;;24.00;99.90;;;;;;4953966;28;20034;-79
2021/08/14 07:22:24;;;;;;;16.13;11.60;;;24.10;99.90;;;;;;4953702;28;20495;-78
2021/08/14 07:24:50;;;;;;;17.17;9.70;;;24.30;99.90;;;;;;4954948;28;20034;-79
2021/08/14 07:27:16;;;;;;;12.38;10.40;;;24.30;99.90;;;;;;4953613;28;20023;-79
2021/08/14 07:29:42;;;;;;;13.75;11.10;;;24.50;99.90;;;;;;4968603;28;20024;-79
2021/08/14 07:32:08;;;;;;;18.10;10.45;;;24.50;99.90;;;;;;4952387;28;20038;-79
2021/08/14 07:34:33;;;;;;;11.60;10.40;;;24.50;99.90;;;;;;4968526;28;20385;-79
2021/08/14 07:36:59;;;;;;;12.13;10.63;;;24.50;99.90;;;;;;4971602;28;20374;-78
2021/08/14 07:39:25;;;;;;;13.48;11.15;;;24.50;99.90;;;;;;4972560;28;20051;-79
2021/08/14 07:41:50;;;;;;;15.00;11.07;;;24.50;99.90;;;;;;4972655;28;20019;-79
2021/08/14 07:44:16;;;;;;;12.55;10.45;;;24.60;99.90;;;;;;4972783;28;20031;-79
2021/08/14 07:46:42;;;;;;;12.75;9.98;;;24.50;99.90;;;;;;4971577;28;20029;-79
2021/08/14 07:49:07;;;;;;;11.43;10.25;;;24.50;99.90;;;;;;4971321;28;20499;-79
2021/08/14 07:51:33;;;;;;;13.23;9.40;;;24.60;99.90;;;;;;4972497;28;20065;-79
2021/08/14 07:53:58;;;;;;;12.82;10.55;;;24.80;99.90;;;;;;4972388;28;20031;-79
2021/08/14 07:56:24;;;;;;;10.23;9.18;;;25.00;99.90;;;;;;4972154;28;20042;-79
2021/08/14 07:58:50;;;;;;;12.75;9.68;;;25.20;99.90;;;;;;4955727;28;20506;-79
2021/08/14 08:01:15;;;;;;;14.40;10.38;;;25.40;98.00;;;;;;4954242;28;20035;-79
2021/08/14 08:03:41;;;;;;;11.93;10.68;;;25.60;99.30;;;;;;4953149;28;20019;-79
2021/08/14 08:06:07;;;;;;;10.40;8.90;;;25.60;90.70;;;;;;4967955;28;20027;-79
2021/08/14 08:08:34;;;;;;;12.52;10.32;;;25.80;91.10;;;;;;4971259;28;20031;-79
2021/08/14 08:11:00;;;;;;;11.90;10.57;;;26.00;91.10;;;;;;4951789;28;20031;-79
2021/08/14 08:13:25;;;;;;;13.73;10.93;;;26.20;90.50;;;;;;4953567;28;20144;-79
2021/08/14 08:15:51;;;;;;;13.13;10.52;;;26.30;88.20;;;;;;4953008;28;20160;-79
2021/08/14 08:18:17;;;;;;;11.70;10.48;;;26.40;83.90;;;;;;4951568;28;20031;-79
2021/08/14 08:20:42;;;;;;;16.20;10.85;;;26.40;86.40;;;;;;4967736;28;20122;-79
2021/08/14 08:23:08;;;;;;;10.88;9.75;;;26.40;83.20;;;;;;4957118;28;20545;-79
2021/08/14 08:25:34;;;;;;;14.85;10.32;;;26.40;85.60;;;;;;4986887;28;20067;-79
2021/08/14 08:28:03;;;;;;;12.30;9.52;;;26.50;84.70;;;;;;4970552;28;20149;-79
2021/08/14 08:30:29;;;;;;;11.80;10.23;;;26.60;87.70;;;;;;4970704;28;20053;-79
2021/08/14 08:32:55;;;;;;;14.07;10.63;;;26.80;85.70;;;;;;4972063;28;20107;-79
2021/08/14 08:35:21;;;;;;;13.73;10.80;;;26.90;86.30;;;;;;4968720;28;20164;-79
2021/08/14 08:37:46;;;;;;;11.50;10.32;;;26.80;84.70;;;;;;4964107;28;20035;-79
2021/08/14 08:40:14;;;;;;;10.82;9.73;;;26.90;84.80;;;;;;4953117;28;20110;-79
2021/08/14 08:42:41;;;;;;;11.02;9.38;;;27.00;87.40;;;;;;4952558;28;20031;-79
2021/08/14 08:45:07;;;;;;;11.25;10.00;;;27.00;82.70;;;;;;4967080;28;20019;-80
2021/08/14 08:47:36;;;;;;;14.15;10.00;;;27.20;86.00;;;;;;4952553;28;20032;-79
2021/08/14 08:50:05;;;;;;;10.07;8.77;;;27.20;80.60;;;;;;4967425;28;20397;-79
2021/08/14 08:52:30;;;;;;;13.95;10.07;;;27.30;81.30;;;;;;4974635;28;20050;-79
2021/08/14 08:54:56;;;;;;;12.77;10.30;;;27.40;81.20;;;;;;4970586;28;20488;-79
2021/08/14 08:57:22;;;;;;;14.88;9.57;;;27.50;81.70;;;;;;4970466;28;20015;-79
2021/08/14 08:59:48;;;;;;;16.42;11.05;;;27.40;79.00;;;;;;4971707;28;20026;-79
2021/08/14 09:02:34;;;;;;;12.75;10.60;;;27.60;85.40;;;;;;4957540;28;20481;-79
2021/08/14 09:05:09;;;;;;;11.82;9.55;;;27.80;86.50;;;;;;4969122;28;20039;-79
2021/08/14 09:07:35;;;;;;;13.55;12.20;;;27.90;81.40;;;;;;4971191;28;20062;-79
2021/08/14 09:10:03;;;;;;;11.45;10.02;;;28.00;83.30;;;;;;4971351;28;20027;-79
2021/08/14 09:12:35;;;;;;;12.27;10.80;;;28.00;82.10;;;;;;4986254;28;20083;-79
2021/08/14 09:15:02;;;;;;;13.15;11.38;;;27.90;80.40;;;;;;4971619;28;20071;-79
2021/08/14 09:17:29;;;;;;;13.13;10.88;;;28.00;84.30;;;;;;4971020;28;20023;-79
2021/08/14 09:20:10;;;;;;;12.68;10.52;;;28.10;83.30;;;;;;4986417;28;20062;-79
2021/08/14 09:22:36;;;;;;;17.42;11.82;;;28.10;83.00;;;;;;4971259;28;20031;-79
2021/08/14 09:25:11;;;;;;;16.83;12.10;;;28.10;80.70;;;;;;4971136;28;20501;-79
2021/08/14 09:27:57;;;;;;;12.18;10.85;;;27.90;78.00;;;;;;4971246;28;20022;-79
2021/08/14 09:30:46;;;;;;;14.05;11.25;;;28.00;82.80;;;;;;4971205;28;20061;-79
2021/08/14 09:33:14;;;;;;;15.00;11.32;;;28.10;79.20;;;;;;4985847;28;20152;-79
2021/08/14 09:35:44;;;;;;;15.02;11.90;;;28.10;84.10;;;;;;4978795;28;20055;-79
2021/08/14 09:38:13;;;;;;;12.85;11.30;;;28.30;85.80;;;;;;4956726;28;20027;-79
2021/08/14 09:40:42;;;;;;;15.13;12.65;;;28.40;83.70;;;;;;4971119;28;20055;-79
2021/08/14 09:43:08;;;;;;;15.63;12.43;;;28.30;78.00;;;;;;4956459;28;20063;-79
2021/08/14 09:45:35;;;;;;;15.70;11.93;;;28.40;80.90;;;;;;4966434;28;20039;-79
2021/08/14 09:48:17;;;;;;;12.98;11.05;;;28.50;80.80;;;;;;4950623;28;20026;-79
2021/08/14 09:50:44;;;;;;;14.27;10.95;;;28.70;81.90;;;;;;4951673;28;20513;-79
2021/08/14 09:53:19;;;;;;;18.63;13.05;;;28.70;77.60;;;;;;4966564;28;20385;-79
2021/08/14 09:55:49;;;;;;;22.73;12.77;;;28.50;75.30;;;;;;4967531;28;20028;-79
2021/08/14 09:58:24;;;;;;;16.73;12.85;;;28.40;81.00;;;;;;4955080;28;20031;-79
2021/08/14 10:00:50;;;;;;;17.45;12.65;;;28.60;80.20;;;;;;4955211;28;20016;-79
2021/08/14 10:03:17;;;;;;;19.15;12.50;;;28.70;77.30;;;;;;4970115;28;20027;-79
2021/08/14 10:05:44;;;;;;;18.67;12.98;;;28.70;76.00;;;;;;4993057;28;20026;-79
2021/08/14 10:08:10;;;;;;;25.02;13.95;;;28.80;78.30;;;;;;4968411;28;20112;-79
2021/08/14 10:10:37;;;;;;;20.85;14.25;;;29.00;78.30;;;;;;4953587;29;20061;-79
2021/08/14 10:13:04;;;;;;;18.95;13.38;;;29.10;78.60;;;;;;4953569;28;20028;-79
2021/08/14 10:15:30;;;;;;;18.98;13.30;;;29.20;72.90;;;;;;4954815;28;20497;-79
2021/08/14 10:17:56;;;;;;;18.85;12.98;;;29.20;72.00;;;;;;4955816;28;20030;-79
2021/08/14 10:20:25;;;;;;;22.23;13.63;;;29.40;74.90;;;;;;4970674;28;20027;-80
2021/08/14 10:23:06;;;;;;;20.02;13.07;;;29.30;76.50;;;;;;4972818;28;20465;-79
2021/08/14 10:25:35;;;;;;;19.33;11.88;;;29.40;78.60;;;;;;4974008;28;20488;-79
2021/08/14 10:28:05;;;;;;;18.65;12.43;;;29.40;74.30;;;;;;4973997;28;20023;-79
2021/08/14 10:30:46;;;;;;;16.33;11.50;;;29.50;71.40;;;;;;4988841;28;20421;-79
2021/08/14 10:33:26;;;;;;;21.08;12.98;;;29.50;72.30;;;;;;4973607;28;20127;-79
2021/08/14 10:35:56;;;;;;;15.45;12.25;;;29.30;67.50;;;;;;4980272;28;20031;-79
2021/08/14 10:38:46;;;;;;;18.15;12.73;;;29.40;74.30;;;;;;4960929;28;20029;-79
2021/08/14 10:41:13;;;;;;;19.17;12.90;;;29.60;73.40;;;;;;4973899;28;20015;-79
2021/08/14 10:43:54;;;;;;;18.23;12.77;;;29.70;72.50;;;;;;4954754;28;20027;-79
2021/08/14 10:46:32;;;;;;;19.05;12.43;;;29.70;72.90;;;;;;4969164;28;20028;-79
2021/08/14 10:49:00;;;;;;;16.42;11.75;;;29.70;70.80;;;;;;4954417;28;20094;-79
2021/08/14 10:51:51;;;;;;;13.23;11.32;;;29.50;62.50;;;;;;4979475;28;20054;-79
2021/08/14 10:54:29;;;;;;;17.88;12.93;;;29.20;59.90;;;;;;4988498;28;20030;-79
2021/08/14 10:56:57;;;;;;;15.80;11.57;;;29.10;64.70;;;;;;4988524;28;20057;-79
2021/08/14 10:59:37;;;;;;;13.75;10.25;;;29.20;67.70;;;;;;4973409;28;20115;-79
2021/08/14 11:02:06;;;;;;;15.20;10.70;;;29.40;70.00;;;;;;4973487;28;20023;-79
2021/08/14 11:04:39;;;;;;;15.63;9.65;;;29.50;69.10;;;;;;4979418;28;20034;-78
2021/08/14 11:07:20;;;;;;;10.55;9.40;;;29.60;65.50;;;;;;4972192;28;20517;-78
2021/08/14 11:09:47;;;;;;;12.05;8.70;;;29.60;60.90;;;;;;4972337;28;20539;-79
2021/08/14 11:12:34;;;;;;;12.15;8.50;;;29.60;58.70;;;;;;4967764;28;20073;-78
2021/08/14 11:15:18;;;;;;;18.15;11.27;;;29.80;56.50;;;;;;4956202;28;20023;-79
2021/08/14 11:17:45;;;;;;;14.57;11.00;;;29.70;60.70;;;;;;4977048;28;20505;-79
2021/08/14 11:20:20;;;;;;;14.48;10.05;;;29.70;60.40;;;;;;4983884;28;20379;-79
2021/08/14 11:22:59;;;;;;;12.52;9.77;;;29.90;61.40;;;;;;4970276;28;20385;-79
2021/08/14 11:25:26;;;;;;;11.30;9.38;;;29.90;59.80;;;;;;4957327;28;20041;-79
2021/08/14 11:28:09;;;;;;;11.38;10.27;;;29.70;58.90;;;;;;4969213;28;20437;-79
2021/08/14 11:30:43;;;;;;;15.10;9.18;;;29.60;58.60;;;;;;4968708;28;20035;-79
2021/08/14 11:33:10;;;;;;;12.02;8.48;;;29.70;57.90;;;;;;4965081;28;20055;-79
2021/08/14 11:35:39;;;;;;;12.90;8.55;;;29.80;56.70;;;;;;4980646;28;20400;-79
2021/08/14 11:38:10;;;;;;;11.75;9.13;;;29.70;59.10;;;;;;4975190;28;20104;-79
2021/08/14 11:40:41;;;;;;;14.18;10.20;;;29.70;58.30;;;;;;4984106;28;20167;-79
2021/08/14 11:43:12;;;;;;;11.35;9.23;;;29.90;60.00;;;;;;4963509;28;20367;-79
2021/08/14 11:45:40;;;;;;;13.40;9.65;;;30.10;58.80;;;;;;4956790;28;20399;-79
2021/08/14 11:48:09;;;;;;;14.15;9.57;;;29.90;56.20;;;;;;4968813;28;20060;-79
2021/08/14 11:50:45;;;;;;;10.02;9.02;;;29.90;56.10;;;;;;4965232;28;20028;-79
2021/08/14 11:53:13;;;;;;;12.50;9.63;;;29.80;58.10;;;;;;4968491;28;20031;-79
2021/08/14 11:55:39;;;;;;;11.77;10.00;;;29.90;58.40;;;;;;4981081;28;20069;-79
2021/08/14 11:58:06;;;;;;;15.35;11.07;;;30.10;58.90;;;;;;4969150;28;20058;-79
2021/08/14 12:00:37;;;;;;;15.43;10.75;;;29.90;56.80;;;;;;4952563;28;20028;-79
2021/08/14 12:03:15;;;;;;;12.00;10.05;;;29.90;59.20;;;;;;4954192;28;20031;-79
2021/08/14 12:05:44;;;;;;;14.77;10.98;;;30.00;62.40;;;;;;4966793;28;20034;-79
2021/08/14 12:08:31;;;;;;;13.52;10.95;;;30.10;58.10;;;;;;4969211;28;20037;-79
2021/08/14 12:11:02;;;;;;;16.02;11.68;;;30.30;59.40;;;;;;4971534;28;20047;-79
2021/08/14 12:13:27;;;;;;;15.90;11.77;;;30.40;58.60;;;;;;4971161;28;20067;-79
2021/08/14 12:16:18;;;;;;;16.35;12.05;;;30.30;56.70;;;;;;4950928;28;20168;-79
2021/08/14 12:18:46;;;;;;;15.02;11.40;;;30.50;60.30;;;;;;4951701;28;20098;-79
2021/08/14 12:21:14;;;;;;;15.77;10.80;;;30.40;54.80;;;;;;4968381;28;20023;-79
2021/08/14 12:23:41;;;;;;;13.95;10.75;;;30.50;55.70;;;;;;4958084;28;20031;-79
2021/08/14 12:26:21;;;;;;;13.75;11.20;;;30.70;57.10;;;;;;4961544;28;20094;-79
2021/08/14 12:29:01;;;;;;;13.90;11.00;;;30.80;56.60;;;;;;4969336;28;20033;-79
2021/08/14 12:31:28;;;;;;;15.13;11.27;;;30.70;57.30;;;;;;4969187;28;20037;-79